Wasioja, Minnesota
Current Conditions -  °F | °C
As of 11:53 PM on Sunday 19 Oct 2014 (Local Time) from KTOB Reporting Station
Clear Clear  
Wind Chill: 54°   Ceiling: Unl
Heat Index: 54°   Visibility: 10mi
Dew Point: 43°   Wind: 10mph
Humidity: 67%   Direction: 310°NW
Pressure: 29.86"   Gusts: NA
Location:  44.0228°N, 92.8616°W
Report Text: KTOB 200453Z AUTO 31009KT 10SM CLR 12/06 A2986 RMK AO2
Loading
Personal Weather Stations






























Interactive Weather Map
Tropical Storm Tracking
New forecast layout! Learn more

10-Day Weather Forecast

Advertisements
Track Severe Weather on mobile